Time;durP1;ratioP1;P1;durP2;ratioP2;P2;SDS_P1;SDS_P2;PMS_P1;PMS_P2;Temp;Humidity;BMP_temperature;BMP_pressure;BME280_temperature;BME280_humidity;BME280_pressure;Samples;Min_cycle;Max_cycle;Signal;HPM_P1;HPM_P2
2022/03/16 00:01:54;;;;;;;19.60;11.88;;;;;;;;;;4956440;28;20042;-68
2022/03/16 00:04:21;;;;;;;18.48;11.15;;;;;;;;;;4963288;28;20046;-68
2022/03/16 00:06:47;;;;;;;17.33;12.00;;;;;;;;;;4967493;28;20054;-69
2022/03/16 00:09:14;;;;;;;21.17;12.52;;;;;;;;;;4966244;28;20049;-70
2022/03/16 00:11:40;;;;;;;18.13;12.13;;;;;;;;;;4970982;28;20050;-69
2022/03/16 00:14:06;;;;;;;19.30;12.30;;;;;;;;;;4961738;28;20046;-70
2022/03/16 00:16:33;;;;;;;18.10;11.88;;;;;;;;;;4972188;28;20058;-70
2022/03/16 00:18:59;;;;;;;19.63;11.57;;;;;;;;;;4972322;28;20082;-69
2022/03/16 00:21:26;;;;;;;22.27;12.10;;;;;;;;;;4965949;28;20061;-70
2022/03/16 00:23:52;;;;;;;16.63;11.57;;;;;;;;;;4965027;28;20479;-69
2022/03/16 00:26:18;;;;;;;21.77;12.15;;;;;;;;;;4951501;28;20077;-68
2022/03/16 00:28:45;;;;;;;18.85;11.73;;;;;;;;;;4964617;28;20434;-70
2022/03/16 00:31:11;;;;;;;18.15;11.73;;;;;;;;;;4956506;28;20062;-70
2022/03/16 00:33:38;;;;;;;19.52;11.88;;;;;;;;;;4982800;28;20271;-69
2022/03/16 00:36:04;;;;;;;20.42;12.35;;;;;;;;;;4960112;28;20058;-68
2022/03/16 00:38:31;;;;;;;18.65;11.82;;;;;;;;;;4964567;28;20500;-68
2022/03/16 00:40:57;;;;;;;22.05;11.60;;;;;;;;;;4963490;28;20074;-70
2022/03/16 00:43:23;;;;;;;17.90;12.27;;;;;;;;;;4981697;28;20046;-69
2022/03/16 00:45:49;;;;;;;19.45;12.15;;;;;;;;;;4973023;28;20042;-68
2022/03/16 00:48:16;;;;;;;19.52;12.30;;;;;;;;;;4971872;28;20458;-68
2022/03/16 00:50:42;;;;;;;20.27;11.32;;;;;;;;;;4974979;28;20069;-68
2022/03/16 00:53:08;;;;;;;17.02;12.20;;;;;;;;;;4967542;28;20055;-68
2022/03/16 00:55:35;;;;;;;19.67;11.82;;;;;;;;;;4969743;28;20051;-68
2022/03/16 00:58:02;;;;;;;18.40;11.65;;;;;;;;;;4968818;28;20408;-70
2022/03/16 01:00:28;;;;;;;16.67;11.25;;;;;;;;;;4963358;28;20047;-69
2022/03/16 01:02:55;;;;;;;24.88;12.38;;;;;;;;;;4974949;28;20082;-68
2022/03/16 01:05:21;;;;;;;18.50;11.88;;;;;;;;;;4969500;28;20050;-70
2022/03/16 01:07:48;;;;;;;17.60;10.88;;;;;;;;;;4969548;28;20046;-68
2022/03/16 01:10:14;;;;;;;17.33;11.23;;;;;;;;;;4975928;28;20062;-68
2022/03/16 01:12:40;;;;;;;18.67;12.27;;;;;;;;;;4967544;28;20492;-68
2022/03/16 01:15:07;;;;;;;17.88;11.82;;;;;;;;;;4968191;28;20058;-68
2022/03/16 01:17:33;;;;;;;20.30;12.25;;;;;;;;;;4961934;28;20062;-68
2022/03/16 01:20:00;;;;;;;18.63;12.70;;;;;;;;;;4972525;28;20046;-70
2022/03/16 01:22:26;;;;;;;19.88;12.82;;;;;;;;;;4963025;28;20053;-68
2022/03/16 01:24:52;;;;;;;20.55;13.43;;;;;;;;;;4978487;28;20042;-68
2022/03/16 01:27:19;;;;;;;20.48;12.82;;;;;;;;;;4981941;28;20443;-68
2022/03/16 01:29:46;;;;;;;19.40;12.13;;;;;;;;;;4965105;28;20075;-68
2022/03/16 01:32:12;;;;;;;20.33;13.25;;;;;;;;;;4973658;28;20053;-69
2022/03/16 01:34:39;;;;;;;18.95;12.40;;;;;;;;;;4957415;28;20284;-68
2022/03/16 01:37:05;;;;;;;19.23;12.30;;;;;;;;;;4961628;28;20055;-70
2022/03/16 01:39:32;;;;;;;17.73;12.13;;;;;;;;;;4959822;28;20507;-68
2022/03/16 01:41:58;;;;;;;17.02;11.75;;;;;;;;;;4970406;28;20069;-68
2022/03/16 01:44:55;;;;;;;18.02;12.30;;;;;;;;;;4977343;28;20050;-68
2022/03/16 01:47:22;;;;;;;20.40;12.00;;;;;;;;;;4958288;28;20362;-68
2022/03/16 01:49:49;;;;;;;16.92;11.40;;;;;;;;;;4962532;28;20050;-70
2022/03/16 01:52:18;;;;;;;17.45;11.55;;;;;;;;;;4966498;28;20057;-70
2022/03/16 01:54:44;;;;;;;;;;;;;;;;;;4982388;28;20054;-69
2022/03/16 01:57:11;;;;;;;16.40;11.57;;;;;;;;;;4971084;28;19925;-68
2022/03/16 01:59:38;;;;;;;16.65;10.98;;;;;;;;;;4981946;28;20076;-68
2022/03/16 02:02:05;;;;;;;17.63;10.88;;;;;;;;;;4981067;28;20535;-67
2022/03/16 02:04:31;;;;;;;19.45;12.88;;;;;;;;;;4971637;28;20046;-67
2022/03/16 02:06:58;;;;;;;20.13;13.57;;;;;;;;;;4969234;28;20054;-67
2022/03/16 02:09:25;;;;;;;19.92;12.80;;;;;;;;;;4959593;28;20061;-67
2022/03/16 02:11:51;;;;;;;24.02;13.57;;;;;;;;;;4969278;28;20051;-69
2022/03/16 02:14:17;;;;;;;18.25;11.55;;;;;;;;;;4968709;28;20061;-67
2022/03/16 02:16:45;;;;;;;20.50;11.68;;;;;;;;;;4960491;28;20058;-67
2022/03/16 02:19:11;;;;;;;19.35;11.68;;;;;;;;;;4967285;28;20076;-69
2022/03/16 02:21:38;;;;;;;18.73;12.07;;;;;;;;;;4959220;28;20061;-69
2022/03/16 02:24:05;;;;;;;18.42;11.77;;;;;;;;;;4972487;28;20050;-69
2022/03/16 02:26:31;;;;;;;18.60;12.20;;;;;;;;;;4974196;28;20057;-69
2022/03/16 02:28:58;;;;;;;19.02;12.30;;;;;;;;;;4970568;28;20050;-69
2022/03/16 02:31:25;;;;;;;19.77;12.30;;;;;;;;;;4957026;28;20061;-68
2022/03/16 02:33:52;;;;;;;17.67;12.27;;;;;;;;;;4971032;28;20476;-68
2022/03/16 02:36:18;;;;;;;17.35;12.00;;;;;;;;;;4969913;28;20062;-68
2022/03/16 02:38:45;;;;;;;21.45;13.18;;;;;;;;;;4966910;28;20061;-68
2022/03/16 02:41:12;;;;;;;19.80;12.82;;;;;;;;;;4972109;28;20444;-68
2022/03/16 02:43:39;;;;;;;21.80;12.35;;;;;;;;;;4955005;28;20065;-68
2022/03/16 02:46:05;;;;;;;18.63;12.82;;;;;;;;;;4967823;28;20427;-67
2022/03/16 02:48:32;;;;;;;18.77;13.73;;;;;;;;;;4977276;28;20053;-68
2022/03/16 02:50:58;;;;;;;19.33;12.60;;;;;;;;;;4973391;28;20057;-68
2022/03/16 02:53:24;;;;;;;22.45;14.35;;;;;;;;;;4980451;28;20571;-68
2022/03/16 02:55:51;;;;;;;20.50;13.15;;;;;;;;;;4965204;28;20050;-68
2022/03/16 02:58:18;;;;;;;23.02;15.25;;;;;;;;;;4988716;28;20519;-67
2022/03/16 03:00:44;;;;;;;23.98;14.60;;;;;;;;;;4970629;28;20060;-68
2022/03/16 03:03:11;;;;;;;24.08;15.32;;;;;;;;;;4977913;28;20046;-68
2022/03/16 03:05:37;;;;;;;27.08;16.73;;;;;;;;;;4969045;28;20084;-68
2022/03/16 03:08:04;;;;;;;26.08;16.83;;;;;;;;;;4977850;28;20065;-67
2022/03/16 03:10:30;;;;;;;26.40;16.83;;;;;;;;;;4972352;28;20063;-68
2022/03/16 03:12:56;;;;;;;27.63;17.65;;;;;;;;;;4956687;28;20047;-68
2022/03/16 03:15:23;;;;;;;28.10;17.60;;;;;;;;;;4973235;28;20046;-67
2022/03/16 03:17:49;;;;;;;26.88;16.65;;;;;;;;;;4958438;28;20551;-68
2022/03/16 03:20:15;;;;;;;27.48;17.33;;;;;;;;;;4966727;28;20051;-68
2022/03/16 03:22:42;;;;;;;25.08;16.42;;;;;;;;;;4969613;28;20055;-69
2022/03/16 03:25:12;;;;;;;30.77;17.88;;;;;;;;;;4953767;28;20431;-69
2022/03/16 03:27:38;;;;;;;26.80;17.60;;;;;;;;;;4974805;28;20492;-69
2022/03/16 03:30:05;;;;;;;24.52;16.50;;;;;;;;;;4968335;28;20046;-69
2022/03/16 03:32:31;;;;;;;24.02;16.15;;;;;;;;;;4976250;28;20058;-68
2022/03/16 03:34:58;;;;;;;23.98;16.30;;;;;;;;;;4968484;28;20081;-69
2022/03/16 03:37:25;;;;;;;26.40;16.77;;;;;;;;;;4967466;28;20047;-69
2022/03/16 03:39:52;;;;;;;26.00;16.60;;;;;;;;;;4963334;28;20472;-68
2022/03/16 03:42:19;;;;;;;25.30;17.10;;;;;;;;;;4967224;28;20046;-69
2022/03/16 03:44:45;;;;;;;23.25;16.45;;;;;;;;;;4966395;28;20558;-68
2022/03/16 03:47:12;;;;;;;23.17;15.98;;;;;;;;;;4963464;28;20080;-69
2022/03/16 03:49:39;;;;;;;24.42;17.23;;;;;;;;;;4969402;28;20069;-69
2022/03/16 03:52:05;;;;;;;25.83;17.25;;;;;;;;;;4967713;28;20042;-69
2022/03/16 03:54:32;;;;;;;25.08;15.40;;;;;;;;;;4958674;28;20831;-69
2022/03/16 03:57:01;;;;;;;25.85;17.20;;;;;;;;;;4969135;28;20367;-69
2022/03/16 03:59:27;;;;;;;26.52;17.88;;;;;;;;;;4957935;28;20541;-69
2022/03/16 04:01:53;;;;;;;28.15;17.67;;;;;;;;;;4966246;28;20493;-69
2022/03/16 04:04:20;;;;;;;26.05;17.52;;;;;;;;;;4977112;28;20061;-68
2022/03/16 04:06:46;;;;;;;27.75;17.65;;;;;;;;;;4963455;28;20262;-69
2022/03/16 04:09:13;;;;;;;26.52;18.55;;;;;;;;;;4954382;28;20057;-68
2022/03/16 04:11:39;;;;;;;28.25;18.55;;;;;;;;;;4976418;28;20093;-68
2022/03/16 04:14:05;;;;;;;26.17;17.98;;;;;;;;;;4972337;28;20050;-69
2022/03/16 04:16:32;;;;;;;24.70;16.70;;;;;;;;;;4957317;28;20055;-69
2022/03/16 04:18:58;;;;;;;27.25;17.85;;;;;;;;;;4970784;28;20066;-69
2022/03/16 04:21:25;;;;;;;27.17;18.77;;;;;;;;;;4960183;28;20046;-69
2022/03/16 04:23:51;;;;;;;30.08;19.27;;;;;;;;;;4961200;28;20047;-68
2022/03/16 04:26:18;;;;;;;28.88;19.35;;;;;;;;;;4962618;28;20560;-68
2022/03/16 04:28:45;;;;;;;30.35;18.98;;;;;;;;;;4976316;28;20053;-69
2022/03/16 04:31:12;;;;;;;25.80;17.25;;;;;;;;;;4981688;28;20511;-68
2022/03/16 04:33:38;;;;;;;29.90;18.65;;;;;;;;;;4977265;28;20769;-68
2022/03/16 04:36:05;;;;;;;26.33;18.35;;;;;;;;;;4964189;28;20878;-69
2022/03/16 04:38:32;;;;;;;28.63;19.15;;;;;;;;;;4965755;28;20042;-69
2022/03/16 04:41:02;;;;;;;29.65;18.20;;;;;;;;;;4972390;28;20436;-69
2022/03/16 04:43:28;;;;;;;30.13;18.15;;;;;;;;;;4983479;28;20059;-69
2022/03/16 04:45:54;;;;;;;27.30;17.45;;;;;;;;;;4975660;28;20054;-69
2022/03/16 04:48:21;;;;;;;26.77;18.92;;;;;;;;;;4973755;28;20111;-68
2022/03/16 04:50:47;;;;;;;27.65;18.45;;;;;;;;;;4969890;28;20379;-68
2022/03/16 04:53:14;;;;;;;27.58;19.23;;;;;;;;;;4982620;28;20091;-68
2022/03/16 04:55:40;;;;;;;26.70;18.83;;;;;;;;;;4975512;28;20730;-69
2022/03/16 04:58:07;;;;;;;27.50;17.83;;;;;;;;;;4979041;28;20046;-68
2022/03/16 05:00:34;;;;;;;26.40;17.60;;;;;;;;;;4968427;28;20055;-68
2022/03/16 05:03:01;;;;;;;28.15;18.73;;;;;;;;;;4965807;28;20058;-68
2022/03/16 05:05:28;;;;;;;30.50;18.92;;;;;;;;;;4963843;28;20400;-69
2022/03/16 05:07:55;;;;;;;29.83;19.05;;;;;;;;;;4960815;28;20495;-68
2022/03/16 05:10:21;;;;;;;27.55;18.83;;;;;;;;;;4968815;28;20066;-68
2022/03/16 05:12:48;;;;;;;26.50;17.02;;;;;;;;;;4960583;28;20137;-69
2022/03/16 05:15:15;;;;;;;30.88;19.10;;;;;;;;;;4979484;28;20050;-69
2022/03/16 05:17:42;;;;;;;30.13;18.55;;;;;;;;;;4979151;28;20055;-69
2022/03/16 05:20:09;;;;;;;28.77;17.90;;;;;;;;;;4960891;28;20051;-69
2022/03/16 05:22:48;;;;;;;26.67;17.50;;;;;;;;;;4976194;28;20061;-69
2022/03/16 05:25:16;;;;;;;26.75;17.75;;;;;;;;;;4974067;28;20054;-69
2022/03/16 05:27:42;;;;;;;31.83;18.90;;;;;;;;;;4978203;28;20058;-69
2022/03/16 05:30:10;;;;;;;25.52;17.27;;;;;;;;;;4958850;28;20050;-69
2022/03/16 05:32:36;;;;;;;22.58;16.80;;;;;;;;;;4968385;28;20051;-69
2022/03/16 05:35:03;;;;;;;28.92;18.50;;;;;;;;;;4976482;28;20435;-69
2022/03/16 05:37:29;;;;;;;25.38;17.77;;;;;;;;;;4961002;28;20142;-69
2022/03/16 05:39:56;;;;;;;26.65;17.02;;;;;;;;;;4970584;28;20054;-69
2022/03/16 05:42:22;;;;;;;24.27;16.48;;;;;;;;;;4974103;28;20050;-69
2022/03/16 05:44:48;;;;;;;27.63;17.13;;;;;;;;;;4977178;28;20057;-69
2022/03/16 05:47:14;;;;;;;25.52;16.85;;;;;;;;;;4966036;28;20050;-69
2022/03/16 05:49:41;;;;;;;27.90;16.95;;;;;;;;;;4980796;28;20050;-69
2022/03/16 05:52:07;;;;;;;27.73;17.60;;;;;;;;;;4984930;28;20427;-69
2022/03/16 05:54:33;;;;;;;30.45;18.92;;;;;;;;;;4962845;28;20131;-69
2022/03/16 05:57:00;;;;;;;31.35;18.70;;;;;;;;;;4975665;28;20054;-69
2022/03/16 05:59:31;;;;;;;27.58;18.58;;;;;;;;;;4970219;28;20579;-69
2022/03/16 06:01:57;;;;;;;27.13;18.23;;;;;;;;;;4965795;28;20047;-69
2022/03/16 06:04:24;;;;;;;27.58;18.55;;;;;;;;;;4972483;28;20579;-69
2022/03/16 06:06:51;;;;;;;28.98;18.38;;;;;;;;;;4964392;28;20567;-69
2022/03/16 06:09:17;;;;;;;30.77;19.77;;;;;;;;;;4968252;28;20051;-69
2022/03/16 06:11:43;;;;;;;29.27;19.17;;;;;;;;;;4962705;28;20062;-69
2022/03/16 06:14:10;;;;;;;29.83;19.95;;;;;;;;;;4962632;28;20061;-69
2022/03/16 06:16:36;;;;;;;32.33;20.73;;;;;;;;;;4963424;28;20413;-69
2022/03/16 06:19:03;;;;;;;32.55;20.42;;;;;;;;;;4982150;28;20092;-69
2022/03/16 06:21:29;;;;;;;30.25;20.42;;;;;;;;;;4980774;28;20091;-69
2022/03/16 06:23:55;;;;;;;28.83;19.95;;;;;;;;;;4965584;28;20053;-69
2022/03/16 06:26:22;;;;;;;29.27;19.65;;;;;;;;;;4973873;28;20053;-69
2022/03/16 06:28:48;;;;;;;31.63;19.90;;;;;;;;;;4969753;28;20501;-69
2022/03/16 06:31:14;;;;;;;34.95;20.85;;;;;;;;;;4972975;28;20046;-69
2022/03/16 06:33:40;;;;;;;30.85;21.17;;;;;;;;;;4971517;28;20058;-69
2022/03/16 06:36:07;;;;;;;29.30;19.23;;;;;;;;;;4982212;28;20414;-69
2022/03/16 06:38:34;;;;;;;32.55;21.50;;;;;;;;;;4969917;28;20057;-69
2022/03/16 06:41:00;;;;;;;31.40;21.52;;;;;;;;;;4968530;28;20053;-69
2022/03/16 06:43:26;;;;;;;34.92;22.30;;;;;;;;;;4967163;28;20054;-69
2022/03/16 06:45:53;;;;;;;32.85;21.08;;;;;;;;;;4973306;28;20050;-69
2022/03/16 06:48:23;;;;;;;37.17;22.92;;;;;;;;;;4981599;28;20055;-69
2022/03/16 06:50:49;;;;;;;33.22;20.75;;;;;;;;;;4967083;28;20559;-69
2022/03/16 06:53:16;;;;;;;34.28;21.75;;;;;;;;;;4961637;28;20351;-69
2022/03/16 06:55:42;;;;;;;34.03;22.23;;;;;;;;;;4964319;28;20053;-69
2022/03/16 06:58:08;;;;;;;37.00;24.65;;;;;;;;;;4954485;28;20046;-69
2022/03/16 07:00:35;;;;;;;35.58;22.38;;;;;;;;;;4968982;28;20480;-69
2022/03/16 07:03:03;;;;;;;36.42;22.00;;;;;;;;;;4966783;28;20064;-69
2022/03/16 07:05:30;;;;;;;35.13;22.97;;;;;;;;;;4981155;28;20066;-69
2022/03/16 07:07:57;;;;;;;38.30;24.52;;;;;;;;;;4985201;28;20292;-69
2022/03/16 07:10:24;;;;;;;39.10;22.92;;;;;;;;;;4968325;28;20050;-69
2022/03/16 07:12:50;;;;;;;38.33;24.58;;;;;;;;;;4977116;28;20051;-69
2022/03/16 07:15:17;;;;;;;35.00;24.23;;;;;;;;;;4974673;28;20077;-69
2022/03/16 07:17:43;;;;;;;38.95;23.67;;;;;;;;;;4973334;28;20081;-69
2022/03/16 07:20:10;;;;;;;36.90;22.85;;;;;;;;;;4960588;28;20054;-69
2022/03/16 07:22:37;;;;;;;33.78;20.23;;;;;;;;;;4961781;28;20058;-69
2022/03/16 07:25:19;;;;;;;36.45;22.65;;;;;;;;;;4967455;28;20058;-69
2022/03/16 07:27:47;;;;;;;38.90;22.98;;;;;;;;;;4973315;28;20054;-69
2022/03/16 07:30:13;;;;;;;33.55;20.95;;;;;;;;;;4979836;28;20053;-69
2022/03/16 07:32:39;;;;;;;31.08;20.83;;;;;;;;;;4967484;28;20046;-69
2022/03/16 07:35:06;;;;;;;32.42;21.40;;;;;;;;;;4971141;28;20057;-69
2022/03/16 07:37:34;;;;;;;34.83;22.50;;;;;;;;;;4971602;28;20062;-69
2022/03/16 07:40:00;;;;;;;30.92;20.73;;;;;;;;;;4969642;28;20046;-69
2022/03/16 07:42:33;;;;;;;31.95;20.90;;;;;;;;;;4976500;28;20109;-69
2022/03/16 07:44:59;;;;;;;29.67;19.35;;;;;;;;;;4968465;28;20076;-69
2022/03/16 07:47:25;;;;;;;28.80;20.48;;;;;;;;;;4983396;28;20046;-69
2022/03/16 07:50:04;;;;;;;30.40;18.98;;;;;;;;;;4955756;28;20050;-69
2022/03/16 07:52:31;;;;;;;28.13;18.08;;;;;;;;;;4973888;28;20061;-69
2022/03/16 07:54:57;;;;;;;34.75;21.27;;;;;;;;;;4959717;28;20740;-68
2022/03/16 07:57:25;;;;;;;26.85;17.58;;;;;;;;;;4965857;28;20061;-69
2022/03/16 07:59:51;;;;;;;33.13;19.77;;;;;;;;;;4973562;28;20565;-69
2022/03/16 08:02:18;;;;;;;29.20;17.88;;;;;;;;;;4964313;28;20043;-69
2022/03/16 08:04:44;;;;;;;27.95;19.40;;;;;;;;;;4967923;28;20053;-68
2022/03/16 08:07:10;;;;;;;30.92;19.30;;;;;;;;;;4965740;28;20053;-69
2022/03/16 08:09:36;;;;;;;31.05;17.98;;;;;;;;;;4985494;28;20055;-69
2022/03/16 08:12:03;;;;;;;26.77;17.65;;;;;;;;;;4973076;28;20504;-69
2022/03/16 08:14:30;;;;;;;26.92;18.10;;;;;;;;;;4973544;28;20047;-69
2022/03/16 08:16:57;;;;;;;22.80;15.48;;;;;;;;;;4966915;28;20118;-69
2022/03/16 08:19:23;;;;;;;22.60;15.38;;;;;;;;;;4959783;28;20412;-69
2022/03/16 08:21:50;;;;;;;21.33;13.48;;;;;;;;;;4976945;28;20050;-69
2022/03/16 08:24:16;;;;;;;19.88;13.25;;;;;;;;;;4968093;28;20519;-69
2022/03/16 08:26:43;;;;;;;22.15;12.57;;;;;;;;;;4979892;28;20538;-70
2022/03/16 08:29:09;;;;;;;20.63;11.85;;;;;;;;;;4966898;28;20411;-69
2022/03/16 08:31:35;;;;;;;21.20;12.25;;;;;;;;;;4973191;28;20078;-69
2022/03/16 08:34:02;;;;;;;22.33;11.80;;;;;;;;;;4964766;28;20145;-69
2022/03/16 08:36:29;;;;;;;20.85;11.70;;;;;;;;;;4982610;28;20165;-70
2022/03/16 08:38:55;;;;;;;18.75;12.15;;;;;;;;;;4973498;28;20046;-69
2022/03/16 08:41:21;;;;;;;17.55;11.07;;;;;;;;;;4972242;28;20487;-70
2022/03/16 08:43:48;;;;;;;19.65;10.48;;;;;;;;;;4987981;28;20093;-69
2022/03/16 08:46:14;;;;;;;17.80;10.05;;;;;;;;;;4968350;28;20065;-70
2022/03/16 08:48:40;;;;;;;19.27;10.95;;;;;;;;;;4982480;28;20530;-69
2022/03/16 08:51:08;;;;;;;19.52;11.65;;;;;;;;;;4980065;28;20067;-70
2022/03/16 08:53:34;;;;;;;18.40;11.27;;;;;;;;;;4974944;28;20137;-69
2022/03/16 08:56:01;;;;;;;15.52;10.43;;;;;;;;;;4970303;28;20071;-69
2022/03/16 08:58:27;;;;;;;17.30;10.05;;;;;;;;;;4966594;28;20142;-69
2022/03/16 09:00:54;;;;;;;16.98;10.40;;;;;;;;;;4962814;28;20577;-69
2022/03/16 09:03:21;;;;;;;19.58;10.45;;;;;;;;;;4964637;28;20409;-69
2022/03/16 09:05:48;;;;;;;16.70;10.35;;;;;;;;;;4968748;28;20082;-69
2022/03/16 09:08:18;;;;;;;18.65;12.05;;;;;;;;;;4971242;28;20058;-69
2022/03/16 09:10:44;;;;;;;17.17;10.45;;;;;;;;;;4964209;28;20054;-69
2022/03/16 09:13:10;;;;;;;16.05;10.45;;;;;;;;;;4967192;28;20051;-69
2022/03/16 09:15:37;;;;;;;15.32;10.38;;;;;;;;;;4969284;28;20054;-69
2022/03/16 09:18:03;;;;;;;16.25;9.70;;;;;;;;;;4989043;28;20510;-69
2022/03/16 09:20:30;;;;;;;17.83;10.05;;;;;;;;;;4968600;28;20082;-70
2022/03/16 09:23:00;;;;;;;19.83;10.20;;;;;;;;;;4986055;28;20058;-69
2022/03/16 09:25:27;;;;;;;16.42;10.10;;;;;;;;;;4973491;28;20069;-70
2022/03/16 09:27:54;;;;;;;16.85;9.55;;;;;;;;;;4970153;28;20050;-69
2022/03/16 09:30:22;;;;;;;18.98;10.60;;;;;;;;;;4976478;28;20484;-69
2022/03/16 09:32:48;;;;;;;18.02;10.73;;;;;;;;;;4982412;28;20053;-69
2022/03/16 09:35:15;;;;;;;17.08;10.27;;;;;;;;;;4984661;28;20389;-69
2022/03/16 09:37:41;;;;;;;15.82;9.10;;;;;;;;;;4969838;28;20056;-69
2022/03/16 09:40:08;;;;;;;17.40;9.40;;;;;;;;;;4971974;28;20416;-69
2022/03/16 09:42:36;;;;;;;18.05;9.77;;;;;;;;;;4970981;28;20050;-69
2022/03/16 09:45:02;;;;;;;16.50;9.75;;;;;;;;;;4963671;28;20058;-69
2022/03/16 09:47:29;;;;;;;15.00;9.85;;;;;;;;;;4977511;28;20133;-69
2022/03/16 09:49:56;;;;;;;18.63;11.05;;;;;;;;;;4966377;28;20082;-69
2022/03/16 09:52:23;;;;;;;15.95;9.88;;;;;;;;;;4982565;28;20046;-69
2022/03/16 09:54:50;;;;;;;17.05;9.50;;;;;;;;;;4964804;28;20062;-69
2022/03/16 09:57:16;;;;;;;17.98;10.55;;;;;;;;;;4981922;28;20051;-69
2022/03/16 09:59:43;;;;;;;16.17;9.45;;;;;;;;;;4974335;28;20043;-69
2022/03/16 10:02:14;;;;;;;16.30;8.82;;;;;;;;;;4965920;28;20397;-69
2022/03/16 10:04:41;;;;;;;15.68;10.27;;;;;;;;;;4972926;28;20457;-69
2022/03/16 10:07:07;;;;;;;16.10;9.32;;;;;;;;;;4965848;28;20057;-69
2022/03/16 10:15:10;;;;;;;;;;;;;;;;;;4972499;28;20051;-69
2022/03/16 10:17:43;;;;;;;15.85;9.73;;;;;;;;;;4970275;28;19926;-69
2022/03/16 10:20:10;;;;;;;16.73;9.05;;;;;;;;;;4972725;28;20543;-69
2022/03/16 10:22:40;;;;;;;12.65;9.35;;;;;;;;;;4971791;28;20046;-69
2022/03/16 10:25:07;;;;;;;14.95;9.45;;;;;;;;;;4974539;28;20055;-69
2022/03/16 10:27:37;;;;;;;14.00;9.70;;;;;;;;;;4985113;28;20133;-69
2022/03/16 10:30:05;;;;;;;13.23;10.05;;;;;;;;;;4974446;28;20153;-69
2022/03/16 10:32:38;;;;;;;15.10;10.38;;;;;;;;;;4987564;28;20062;-69
2022/03/16 10:35:05;;;;;;;15.55;10.60;;;;;;;;;;4974888;28;20042;-69
2022/03/16 10:37:34;;;;;;;13.75;9.70;;;;;;;;;;4981291;28;20051;-70
2022/03/16 10:40:00;;;;;;;15.77;9.88;;;;;;;;;;4979904;28;20484;-69
2022/03/16 10:48:16;;;;;;;14.38;9.38;;;;;;;;;;4958681;28;20792;-69
2022/03/16 10:50:43;;;;;;;14.35;10.27;;;;;;;;;;4966551;28;20046;-69
2022/03/16 10:53:10;;;;;;;14.75;9.50;;;;;;;;;;4975452;28;20701;-69
2022/03/16 10:55:37;;;;;;;11.52;8.23;;;;;;;;;;4975104;28;20051;-69
2022/03/16 10:58:05;;;;;;;11.98;7.95;;;;;;;;;;4964198;28;20050;-69
2022/03/16 11:00:33;;;;;;;11.85;8.85;;;;;;;;;;4972361;28;20050;-69
2022/03/16 11:03:01;;;;;;;15.20;10.55;;;;;;;;;;4966554;28;20051;-69
2022/03/16 11:05:28;;;;;;;15.95;9.15;;;;;;;;;;4963554;28;20504;-69
2022/03/16 11:07:54;;;;;;;15.00;9.80;;;;;;;;;;4986444;28;20146;-69
2022/03/16 11:10:21;;;;;;;15.90;9.65;;;;;;;;;;4965588;28;20405;-69
2022/03/16 11:15:32;;;;;;;12.00;7.55;;;;;;;;;;4961523;28;20062;-69
2022/03/16 11:17:59;;;;;;;12.40;7.80;;;;;;;;;;4967950;28;20527;-69
2022/03/16 11:20:25;;;;;;;11.95;8.15;;;;;;;;;;4973381;28;20054;-69
2022/03/16 11:25:57;;;;;;;11.63;7.78;;;;;;;;;;4971051;28;20065;-70
2022/03/16 11:28:30;;;;;;;10.90;7.88;;;;;;;;;;4980265;28;20062;-69
2022/03/16 11:30:59;;;;;;;11.63;7.88;;;;;;;;;;4979684;28;20050;-69
2022/03/16 11:33:25;;;;;;;11.73;7.95;;;;;;;;;;4973076;28;20053;-69
2022/03/16 11:35:52;;;;;;;11.05;7.97;;;;;;;;;;4986202;28;20285;-69
2022/03/16 11:38:21;;;;;;;10.80;7.90;;;;;;;;;;4972167;28;20057;-69
2022/03/16 11:40:49;;;;;;;8.52;6.53;;;;;;;;;;4986312;28;20065;-69
2022/03/16 11:43:22;;;;;;;10.02;7.55;;;;;;;;;;4976853;28;20146;-69
2022/03/16 11:45:50;;;;;;;10.13;7.90;;;;;;;;;;4979260;28;20460;-69
2022/03/16 11:48:36;;;;;;;11.85;8.20;;;;;;;;;;4986329;28;20527;-69
2022/03/16 11:51:08;;;;;;;10.38;7.35;;;;;;;;;;4978168;28;20050;-69
2022/03/16 11:53:44;;;;;;;10.43;6.63;;;;;;;;;;5004124;28;20054;-69
2022/03/16 11:56:23;;;;;;;9.98;7.07;;;;;;;;;;4977463;28;20050;-69
2022/03/16 11:58:53;;;;;;;11.70;6.90;;;;;;;;;;4981928;28;20169;-69
2022/03/16 12:01:25;;;;;;;12.50;7.57;;;;;;;;;;4975746;28;20049;-69
2022/03/16 12:03:52;;;;;;;13.73;6.97;;;;;;;;;;4977778;28;20050;-69
2022/03/16 12:06:19;;;;;;;11.85;7.13;;;;;;;;;;4978520;28;20053;-69
2022/03/16 12:08:51;;;;;;;16.63;7.32;;;;;;;;;;4979137;28;20050;-71
2022/03/16 12:14:06;;;;;;;10.75;7.70;;;;;;;;;;4969865;28;20050;-69
2022/03/16 12:16:42;;;;;;;9.73;7.28;;;;;;;;;;4981016;28;20419;-70
2022/03/16 12:19:37;;;;;;;11.10;6.70;;;;;;;;;;4972008;28;20503;-69
2022/03/16 12:22:07;;;;;;;11.77;7.03;;;;;;;;;;4979130;28;20046;-69
2022/03/16 12:30:05;;;;;;;11.10;7.05;;;;;;;;;;4976902;28;20065;-69
2022/03/16 12:32:35;;;;;;;10.70;6.40;;;;;;;;;;4988955;28;20047;-69
2022/03/16 12:35:03;;;;;;;9.88;6.90;;;;;;;;;;4971121;28;20069;-69
2022/03/16 12:37:29;;;;;;;19.98;7.97;;;;;;;;;;4983504;28;20056;-69
2022/03/16 12:39:56;;;;;;;10.88;6.85;;;;;;;;;;4979828;28;20050;-69
2022/03/16 12:42:32;;;;;;;9.95;7.03;;;;;;;;;;4972520;28;20056;-69
2022/03/16 12:45:09;;;;;;;8.88;6.35;;;;;;;;;;4986922;28;20133;-68
2022/03/16 12:47:41;;;;;;;10.85;7.43;;;;;;;;;;4969551;28;20060;-69
2022/03/16 12:50:12;;;;;;;9.73;7.10;;;;;;;;;;4986281;28;20051;-69
2022/03/16 12:52:40;;;;;;;9.70;7.22;;;;;;;;;;4975366;28;20056;-69
2022/03/16 12:55:11;;;;;;;9.15;6.60;;;;;;;;;;4967130;28;20063;-69
2022/03/16 12:57:38;;;;;;;35.00;20.75;;;;;;;;;;4967743;28;20051;-68
2022/03/16 13:00:11;;;;;;;10.57;7.40;;;;;;;;;;4974465;28;20059;-68
2022/03/16 13:02:38;;;;;;;10.20;7.60;;;;;;;;;;4973828;28;20623;-68
2022/03/16 13:05:08;;;;;;;9.73;7.35;;;;;;;;;;4976636;28;20046;-69
2022/03/16 13:07:35;;;;;;;10.48;7.03;;;;;;;;;;4976145;28;20058;-69
2022/03/16 13:10:02;;;;;;;10.35;7.35;;;;;;;;;;4971399;28;20051;-69
2022/03/16 13:12:29;;;;;;;13.30;6.80;;;;;;;;;;4985199;28;20054;-68
2022/03/16 13:14:57;;;;;;;9.35;7.13;;;;;;;;;;4970742;28;20051;-68
2022/03/16 13:17:33;;;;;;;10.90;6.95;;;;;;;;;;4980457;28;20050;-69
2022/03/16 13:20:01;;;;;;;7.72;6.28;;;;;;;;;;4982897;28;20097;-69
2022/03/16 13:22:30;;;;;;;10.77;6.72;;;;;;;;;;4977448;28;20492;-69
2022/03/16 13:24:57;;;;;;;8.52;6.05;;;;;;;;;;4986273;28;20473;-68
2022/03/16 13:27:35;;;;;;;10.18;6.55;;;;;;;;;;4974775;28;20401;-69
2022/03/16 13:30:04;;;;;;;9.60;7.43;;;;;;;;;;4985008;28;20083;-69
2022/03/16 13:32:32;;;;;;;14.18;8.05;;;;;;;;;;4967423;28;20050;-69
2022/03/16 13:35:12;;;;;;;12.45;7.35;;;;;;;;;;4985045;28;20054;-70
2022/03/16 13:37:52;;;;;;;9.70;7.25;;;;;;;;;;4972711;28;20058;-69
2022/03/16 13:40:26;;;;;;;10.15;6.97;;;;;;;;;;4981674;28;20055;-69
2022/03/16 13:43:00;;;;;;;11.90;6.75;;;;;;;;;;4984259;28;20049;-69
2022/03/16 13:45:27;;;;;;;10.38;7.35;;;;;;;;;;4983061;28;20043;-69
2022/03/16 13:48:07;;;;;;;11.15;6.75;;;;;;;;;;4975496;28;20050;-70
2022/03/16 13:50:34;;;;;;;11.02;6.55;;;;;;;;;;4973462;28;20047;-69
2022/03/16 13:53:20;;;;;;;8.73;6.72;;;;;;;;;;4990419;28;20074;-69
2022/03/16 13:55:49;;;;;;;13.80;7.10;;;;;;;;;;4979580;28;20055;-69
2022/03/16 13:58:20;;;;;;;10.57;6.80;;;;;;;;;;4987212;28;20806;-69
2022/03/16 14:00:47;;;;;;;10.65;6.88;;;;;;;;;;4970214;28;20051;-69
2022/03/16 14:03:14;;;;;;;9.10;6.40;;;;;;;;;;4989769;28;20568;-69
2022/03/16 14:05:41;;;;;;;10.98;6.97;;;;;;;;;;4988893;28;20483;-69
2022/03/16 14:08:09;;;;;;;8.57;6.30;;;;;;;;;;4983251;28;20050;-69
2022/03/16 14:10:37;;;;;;;11.32;7.25;;;;;;;;;;4985012;28;20055;-69
2022/03/16 14:13:05;;;;;;;11.15;7.15;;;;;;;;;;4978089;28;20128;-69
2022/03/16 14:15:32;;;;;;;10.68;7.85;;;;;;;;;;4977620;28;20050;-69
2022/03/16 14:18:09;;;;;;;9.82;6.45;;;;;;;;;;4979292;28;20055;-70
2022/03/16 14:20:37;;;;;;;10.23;8.00;;;;;;;;;;4973032;28;20424;-70
2022/03/16 14:23:04;;;;;;;12.15;7.70;;;;;;;;;;4977040;28;20074;-69
2022/03/16 14:25:33;;;;;;;11.95;6.22;;;;;;;;;;4979929;28;20051;-69
2022/03/16 14:28:01;;;;;;;11.82;6.75;;;;;;;;;;4970576;28;20047;-69
2022/03/16 14:30:28;;;;;;;11.88;8.00;;;;;;;;;;4962958;28;20058;-69
2022/03/16 14:33:01;;;;;;;11.55;6.78;;;;;;;;;;4976265;28;20050;-69
2022/03/16 14:35:29;;;;;;;9.57;6.50;;;;;;;;;;4973300;28;20047;-69
2022/03/16 14:37:57;;;;;;;11.93;7.35;;;;;;;;;;4973466;28;20066;-69
2022/03/16 14:40:24;;;;;;;12.15;7.63;;;;;;;;;;4969192;28;21228;-69
2022/03/16 14:42:54;;;;;;;10.60;7.40;;;;;;;;;;4969321;28;20587;-70
2022/03/16 14:45:23;;;;;;;8.98;6.45;;;;;;;;;;4972062;28;20503;-69
2022/03/16 14:47:53;;;;;;;10.77;7.18;;;;;;;;;;4965086;28;20117;-70
2022/03/16 14:50:23;;;;;;;11.30;7.18;;;;;;;;;;4976205;28;20046;-70
2022/03/16 14:52:50;;;;;;;10.32;6.97;;;;;;;;;;4976320;28;20054;-71